Time;durP1;ratioP1;P1;durP2;ratioP2;P2;SDS_P1;SDS_P2;PMS_P1;PMS_P2;Temp;Humidity;BMP_temperature;BMP_pressure;BME280_temperature;BME280_humidity;BME280_pressure;Samples;Min_cycle;Max_cycle;Signal;HPM_P1;HPM_P2
2022/06/01 00:01:32;;;;;;;4.25;2.20;;;;;;;;;;5055548;28;20029;-64
2022/06/01 00:03:58;;;;;;;3.55;1.70;;;;;;;;;;5055832;28;20036;-64
2022/06/01 00:06:26;;;;;;;3.28;1.90;;;;;;;;;;5055233;28;20503;-64
2022/06/01 00:08:52;;;;;;;4.03;1.70;;;;;;;;;;5068120;28;20119;-64
2022/06/01 00:11:19;;;;;;;2.65;1.90;;;;;;;;;;5055527;28;20064;-64
2022/06/01 00:13:45;;;;;;;5.32;1.80;;;;;;;;;;5055113;28;20025;-64
2022/06/01 00:16:12;;;;;;;4.03;1.73;;;;;;;;;;5054901;28;20123;-64
2022/06/01 00:18:38;;;;;;;2.95;1.75;;;;;;;;;;5054852;28;20025;-64
2022/06/01 00:21:07;;;;;;;4.57;1.58;;;;;;;;;;5053848;28;20473;-64
2022/06/01 00:23:33;;;;;;;2.83;1.60;;;;;;;;;;5055241;28;20032;-64
2022/06/01 00:25:59;;;;;;;4.28;1.70;;;;;;;;;;5063937;28;20036;-64
2022/06/01 00:28:25;;;;;;;3.97;1.80;;;;;;;;;;5054940;28;20031;-64
2022/06/01 00:30:51;;;;;;;3.50;1.70;;;;;;;;;;5055014;28;20068;-64
2022/06/01 00:33:17;;;;;;;1.73;1.60;;;;;;;;;;5054245;28;20515;-64
2022/06/01 00:35:43;;;;;;;2.83;1.98;;;;;;;;;;5054681;28;20068;-64
2022/06/01 00:38:10;;;;;;;3.65;1.65;;;;;;;;;;5054676;28;20059;-64
2022/06/01 00:40:36;;;;;;;3.97;1.83;;;;;;;;;;5054526;28;20029;-64
2022/06/01 00:43:16;;;;;;;2.38;1.63;;;;;;;;;;5056879;28;20070;-64
2022/06/01 00:45:42;;;;;;;1.58;1.45;;;;;;;;;;5054415;28;20033;-64
2022/06/01 00:48:08;;;;;;;7.50;1.90;;;;;;;;;;5055691;28;20031;-64
2022/06/01 00:50:36;;;;;;;3.80;1.70;;;;;;;;;;5054452;28;20559;-64
2022/06/01 00:53:07;;;;;;;3.13;1.80;;;;;;;;;;5054378;28;20033;-64
2022/06/01 00:55:40;;;;;;;6.65;2.03;;;;;;;;;;5054350;28;20095;-64
2022/06/01 00:58:27;;;;;;;2.33;1.67;;;;;;;;;;5053888;28;20091;-64
2022/06/01 01:00:54;;;;;;;5.35;1.95;;;;;;;;;;5053926;28;20032;-64
2022/06/01 01:03:22;;;;;;;2.58;1.65;;;;;;;;;;5057942;28;20427;-64
2022/06/01 01:05:50;;;;;;;2.85;1.83;;;;;;;;;;5054228;28;20028;-64
2022/06/01 01:08:17;;;;;;;4.55;1.70;;;;;;;;;;5054284;28;20033;-64
2022/06/01 01:10:43;;;;;;;3.55;2.00;;;;;;;;;;5054187;28;20108;-64
2022/06/01 01:13:11;;;;;;;2.88;2.08;;;;;;;;;;5053524;28;20021;-64
2022/06/01 01:15:55;;;;;;;6.47;1.77;;;;;;;;;;5053719;28;20111;-64
2022/06/01 01:18:27;;;;;;;4.93;1.80;;;;;;;;;;5053723;28;20032;-64
2022/06/01 01:21:02;;;;;;;2.75;1.60;;;;;;;;;;5054038;28;20519;-64
2022/06/01 01:23:49;;;;;;;4.38;1.73;;;;;;;;;;5053604;28;20083;-64
2022/06/01 01:26:16;;;;;;;4.38;1.75;;;;;;;;;;5053825;28;20035;-64
2022/06/01 01:28:42;;;;;;;4.00;1.70;;;;;;;;;;5062594;28;20114;-64
2022/06/01 01:31:11;;;;;;;2.90;1.65;;;;;;;;;;5057153;28;20055;-64
2022/06/01 01:33:38;;;;;;;4.93;1.95;;;;;;;;;;5053265;28;20037;-64
2022/06/01 01:36:06;;;;;;;5.50;2.15;;;;;;;;;;5058618;28;20119;-64
2022/06/01 01:38:38;;;;;;;2.08;1.80;;;;;;;;;;5062114;28;20021;-64
2022/06/01 01:41:07;;;;;;;3.67;1.58;;;;;;;;;;5053293;28;20120;-64
2022/06/01 01:43:34;;;;;;;4.75;1.60;;;;;;;;;;5052580;28;20037;-64
2022/06/01 01:46:01;;;;;;;5.00;3.03;;;;;;;;;;5053464;28;20060;-64
2022/06/01 01:48:28;;;;;;;5.00;2.05;;;;;;;;;;5053086;28;20033;-64
2022/06/01 01:50:54;;;;;;;5.15;1.90;;;;;;;;;;5053434;28;20108;-64
2022/06/01 01:53:21;;;;;;;3.42;2.08;;;;;;;;;;5053917;28;20028;-64
2022/06/01 01:56:13;;;;;;;3.58;2.08;;;;;;;;;;5052580;28;20044;-64
2022/06/01 01:58:42;;;;;;;2.72;1.88;;;;;;;;;;5050584;28;20041;-64
2022/06/01 02:01:15;;;;;;;4.55;1.90;;;;;;;;;;5053201;28;20064;-64
2022/06/01 02:03:50;;;;;;;3.20;1.90;;;;;;;;;;5053065;28;20017;-64
2022/06/01 02:06:17;;;;;;;3.20;1.80;;;;;;;;;;5053119;28;20431;-64
2022/06/01 02:08:55;;;;;;;2.42;1.60;;;;;;;;;;5052683;28;20028;-64
2022/06/01 02:14:18;;;;;;;3.13;1.98;;;;;;;;;;5052565;28;20025;-64
2022/06/01 02:16:48;;;;;;;6.63;1.88;;;;;;;;;;5052730;28;20028;-64
2022/06/01 02:19:17;;;;;;;2.33;1.70;;;;;;;;;;5051433;28;20467;-64
2022/06/01 02:21:43;;;;;;;4.45;1.73;;;;;;;;;;5044252;28;20025;-64
2022/06/01 02:24:09;;;;;;;2.05;1.88;;;;;;;;;;5052765;28;20053;-64
2022/06/01 02:26:35;;;;;;;2.60;1.65;;;;;;;;;;5052363;28;20037;-64
2022/06/01 02:29:08;;;;;;;4.50;2.15;;;;;;;;;;5052531;28;20494;-64
2022/06/01 02:31:34;;;;;;;;;;;;;;;;;;5052693;28;20468;-64
2022/06/01 02:34:03;;;;;;;2.58;2.10;;;;;;;;;;5052586;28;19909;-64
2022/06/01 02:36:30;;;;;;;5.63;2.00;;;;;;;;;;5052340;28;20085;-64
2022/06/01 02:38:57;;;;;;;4.15;2.13;;;;;;;;;;5052530;28;20043;-64
2022/06/01 02:44:08;;;;;;;2.30;1.60;;;;;;;;;;5056373;28;20415;-64
2022/06/01 02:46:36;;;;;;;4.40;1.95;;;;;;;;;;5062148;28;20021;-64
2022/06/01 02:49:02;;;;;;;6.93;2.03;;;;;;;;;;5052388;28;20063;-64
2022/06/01 02:51:28;;;;;;;3.50;2.28;;;;;;;;;;5052106;28;20061;-64
2022/06/01 02:53:54;;;;;;;4.63;2.47;;;;;;;;;;5052141;28;20114;-64
2022/06/01 02:56:21;;;;;;;4.13;1.85;;;;;;;;;;5052123;28;20060;-64
2022/06/01 02:58:49;;;;;;;4.88;1.92;;;;;;;;;;5052018;28;20451;-64
2022/06/01 03:01:15;;;;;;;3.70;1.65;;;;;;;;;;5052399;28;20120;-64
2022/06/01 03:03:41;;;;;;;6.82;1.90;;;;;;;;;;5052569;28;20036;-64
2022/06/01 03:06:08;;;;;;;6.53;2.20;;;;;;;;;;5066776;28;20125;-64
2022/06/01 03:08:34;;;;;;;5.03;1.92;;;;;;;;;;5056161;28;20033;-64
2022/06/01 03:11:00;;;;;;;2.13;1.90;;;;;;;;;;5055947;28;20543;-64
2022/06/01 03:13:27;;;;;;;2.85;2.00;;;;;;;;;;5056079;28;20025;-64
2022/06/01 03:15:54;;;;;;;3.00;2.00;;;;;;;;;;5054595;28;20410;-64
2022/06/01 03:18:20;;;;;;;1.92;1.60;;;;;;;;;;5056469;28;20059;-64
2022/06/01 03:20:46;;;;;;;2.97;1.90;;;;;;;;;;5056055;28;20075;-64
2022/06/01 03:23:13;;;;;;;5.10;2.13;;;;;;;;;;5055897;28;20024;-64
2022/06/01 03:25:39;;;;;;;2.05;1.75;;;;;;;;;;5055539;28;20094;-64
2022/06/01 03:28:06;;;;;;;2.17;1.83;;;;;;;;;;5064496;28;20082;-64
2022/06/01 03:30:33;;;;;;;4.95;2.20;;;;;;;;;;5055875;28;20033;-64
2022/06/01 03:32:59;;;;;;;4.15;2.90;;;;;;;;;;5056258;28;20021;-64
2022/06/01 03:35:27;;;;;;;3.95;1.90;;;;;;;;;;5055702;28;20068;-64
2022/06/01 03:37:53;;;;;;;3.20;1.92;;;;;;;;;;5055369;28;20611;-64
2022/06/01 03:40:20;;;;;;;2.58;2.10;;;;;;;;;;5058016;28;20013;-64
2022/06/01 03:42:47;;;;;;;2.47;1.90;;;;;;;;;;5061773;28;20029;-64
2022/06/01 03:47:58;;;;;;;2.40;1.92;;;;;;;;;;5055447;28;20040;-64
2022/06/01 03:50:25;;;;;;;4.32;2.28;;;;;;;;;;5055724;28;20119;-64
2022/06/01 03:52:51;;;;;;;7.35;1.88;;;;;;;;;;5055440;28;20082;-64
2022/06/01 03:55:18;;;;;;;3.03;1.90;;;;;;;;;;5055448;28;20021;-64
2022/06/01 03:57:45;;;;;;;2.72;2.20;;;;;;;;;;5054968;28;20044;-64
2022/06/01 04:00:13;;;;;;;5.93;2.20;;;;;;;;;;5053876;28;20044;-64
2022/06/01 04:02:41;;;;;;;3.90;1.83;;;;;;;;;;5045644;28;20044;-64
2022/06/01 04:05:07;;;;;;;3.65;1.50;;;;;;;;;;5048244;28;20036;-64
2022/06/01 04:07:34;;;;;;;3.40;1.73;;;;;;;;;;5055400;28;20025;-64
2022/06/01 04:10:00;;;;;;;5.63;1.88;;;;;;;;;;5054618;28;20056;-64
2022/06/01 04:12:26;;;;;;;1.90;1.80;;;;;;;;;;5053162;28;20099;-64
2022/06/01 04:14:52;;;;;;;3.97;2.08;;;;;;;;;;5046605;28;20032;-64
2022/06/01 04:17:18;;;;;;;4.70;1.98;;;;;;;;;;5048440;28;20033;-64
2022/06/01 04:19:44;;;;;;;4.88;2.22;;;;;;;;;;5056760;28;20037;-64
2022/06/01 04:22:11;;;;;;;3.92;1.95;;;;;;;;;;5051557;28;20425;-64
2022/06/01 04:24:38;;;;;;;4.70;2.03;;;;;;;;;;5051240;28;20567;-64
2022/06/01 04:27:04;;;;;;;2.92;2.00;;;;;;;;;;5051959;28;20033;-64
2022/06/01 04:29:30;;;;;;;3.17;1.70;;;;;;;;;;5047725;28;20132;-67
2022/06/01 04:32:05;;;;;;;3.20;1.95;;;;;;;;;;5044160;28;20542;-67
2022/06/01 04:34:31;;;;;;;2.38;2.17;;;;;;;;;;5056815;28;20033;-67
2022/06/01 04:36:57;;;;;;;3.42;2.03;;;;;;;;;;5050978;28;20496;-67
2022/06/01 04:39:24;;;;;;;6.00;2.33;;;;;;;;;;5055864;28;20105;-67
2022/06/01 04:41:50;;;;;;;3.90;2.33;;;;;;;;;;5056690;28;20025;-69
2022/06/01 04:44:16;;;;;;;5.40;2.33;;;;;;;;;;5054080;28;20021;-63
2022/06/01 04:46:43;;;;;;;4.00;2.10;;;;;;;;;;5049406;28;20029;-63
2022/06/01 04:49:09;;;;;;;4.95;2.30;;;;;;;;;;5056131;28;20021;-63
2022/06/01 04:51:36;;;;;;;4.07;2.25;;;;;;;;;;5053787;28;20166;-63
2022/06/01 04:54:02;;;;;;;4.07;2.72;;;;;;;;;;5054002;28;20033;-63
2022/06/01 04:56:28;;;;;;;5.40;2.10;;;;;;;;;;5053875;28;20074;-63
2022/06/01 04:58:54;;;;;;;4.57;2.38;;;;;;;;;;5054815;28;20045;-64
2022/06/01 05:01:20;;;;;;;2.03;1.80;;;;;;;;;;5051131;28;20028;-66
2022/06/01 05:03:47;;;;;;;4.90;2.30;;;;;;;;;;5049821;28;20021;-65
2022/06/01 05:06:13;;;;;;;3.47;2.22;;;;;;;;;;5053333;28;20024;-66
2022/06/01 05:08:39;;;;;;;2.80;2.13;;;;;;;;;;5049767;28;20095;-66
2022/06/01 05:11:05;;;;;;;3.70;2.05;;;;;;;;;;5047435;28;20116;-65
2022/06/01 05:13:31;;;;;;;2.97;2.28;;;;;;;;;;5058762;28;20095;-66
2022/06/01 05:15:58;;;;;;;4.40;2.30;;;;;;;;;;5055926;28;20029;-66
2022/06/01 05:18:25;;;;;;;8.75;2.25;;;;;;;;;;5051387;28;20040;-66
2022/06/01 05:20:54;;;;;;;3.50;2.25;;;;;;;;;;5051645;28;20033;-66
2022/06/01 05:23:20;;;;;;;12.63;2.90;;;;;;;;;;5058557;28;20032;-66
2022/06/01 05:25:48;;;;;;;4.78;2.72;;;;;;;;;;5051950;28;20056;-66
2022/06/01 05:28:17;;;;;;;3.40;2.50;;;;;;;;;;5052173;28;20025;-65
2022/06/01 05:30:43;;;;;;;4.05;2.90;;;;;;;;;;5055279;28;20138;-66
2022/06/01 05:33:09;;;;;;;3.97;2.58;;;;;;;;;;5044560;28;20721;-65
2022/06/01 05:35:35;;;;;;;4.80;2.60;;;;;;;;;;5042677;28;20017;-66
2022/06/01 05:38:02;;;;;;;6.07;2.92;;;;;;;;;;5050642;28;20511;-66
2022/06/01 05:40:30;;;;;;;7.13;4.95;;;;;;;;;;5054838;28;20025;-66
2022/06/01 05:42:57;;;;;;;6.90;2.53;;;;;;;;;;5047816;28;20408;-67
2022/06/01 05:45:23;;;;;;;6.93;3.40;;;;;;;;;;5038436;28;20029;-67
2022/06/01 05:47:49;;;;;;;7.95;3.20;;;;;;;;;;5040267;28;20024;-66
2022/06/01 05:50:15;;;;;;;8.85;3.33;;;;;;;;;;5043628;28;20484;-66
2022/06/01 05:52:42;;;;;;;8.25;5.60;;;;;;;;;;5048501;28;20048;-66
2022/06/01 05:55:09;;;;;;;11.18;4.43;;;;;;;;;;5046843;28;20418;-66
2022/06/01 05:57:35;;;;;;;10.30;5.15;;;;;;;;;;5044397;28;20029;-66
2022/06/01 06:00:02;;;;;;;8.90;3.55;;;;;;;;;;5046433;28;20517;-66
2022/06/01 06:02:39;;;;;;;9.35;3.38;;;;;;;;;;5040629;28;20040;-64
2022/06/01 06:06:11;;;;;;;10.77;3.55;;;;;;;;;;5047056;28;20016;-64
2022/06/01 06:07:51;;;;;;;7.22;3.92;;;;;;;;;;5049463;28;20025;-64
2022/06/01 06:10:18;;;;;;;9.75;3.40;;;;;;;;;;5054031;28;20028;-64
2022/06/01 06:12:44;;;;;;;8.15;3.65;;;;;;;;;;5051107;28;20032;-64
2022/06/01 06:15:10;;;;;;;9.77;3.80;;;;;;;;;;5049412;28;20044;-64
2022/06/01 06:17:36;;;;;;;6.68;3.25;;;;;;;;;;5043295;28;20061;-64
2022/06/01 06:20:03;;;;;;;6.55;3.50;;;;;;;;;;5049444;28;20049;-64
2022/06/01 06:22:29;;;;;;;5.70;3.20;;;;;;;;;;5052408;28;20031;-64
2022/06/01 06:24:55;;;;;;;6.00;3.50;;;;;;;;;;5052389;28;20029;-65
2022/06/01 06:27:21;;;;;;;5.65;3.20;;;;;;;;;;5051807;28;20040;-65
2022/06/01 06:29:47;;;;;;;8.98;4.57;;;;;;;;;;5048174;28;20477;-66
2022/06/01 06:32:13;;;;;;;9.57;3.65;;;;;;;;;;5052571;28;20151;-64
2022/06/01 06:34:39;;;;;;;6.07;3.17;;;;;;;;;;5049558;28;20112;-73
2022/06/01 06:37:06;;;;;;;8.27;3.65;;;;;;;;;;5047667;28;20468;-64
2022/06/01 06:39:32;;;;;;;5.82;3.25;;;;;;;;;;5046842;28;20562;-63
2022/06/01 06:41:58;;;;;;;8.20;3.05;;;;;;;;;;5045203;28;20034;-63
2022/06/01 06:44:26;;;;;;;5.32;2.70;;;;;;;;;;5040569;28;20466;-68
2022/06/01 06:46:52;;;;;;;6.30;3.42;;;;;;;;;;5042756;28;20060;-62
2022/06/01 06:49:18;;;;;;;8.48;3.03;;;;;;;;;;5052596;28;20037;-62
2022/06/01 06:51:44;;;;;;;5.35;2.83;;;;;;;;;;5044582;28;20505;-62
2022/06/01 06:54:11;;;;;;;3.75;2.83;;;;;;;;;;5053493;28;20037;-62
2022/06/01 06:56:37;;;;;;;7.50;2.78;;;;;;;;;;5033411;28;20757;-62
2022/06/01 06:59:03;;;;;;;9.75;3.17;;;;;;;;;;5040115;28;20029;-62
2022/06/01 07:01:30;;;;;;;13.43;2.88;;;;;;;;;;5035609;28;20026;-62
2022/06/01 07:03:56;;;;;;;6.45;2.75;;;;;;;;;;5041562;28;20022;-62
2022/06/01 07:06:25;;;;;;;8.18;2.63;;;;;;;;;;5049574;28;20483;-62
2022/06/01 07:08:53;;;;;;;6.07;2.35;;;;;;;;;;5043671;28;20481;-62
2022/06/01 07:11:20;;;;;;;5.15;1.98;;;;;;;;;;5047725;28;20112;-62
2022/06/01 07:13:47;;;;;;;6.07;2.60;;;;;;;;;;5045040;28;20025;-62
2022/06/01 07:16:14;;;;;;;4.07;2.60;;;;;;;;;;5046707;28;20067;-62
2022/06/01 07:18:41;;;;;;;2.92;2.20;;;;;;;;;;5048701;28;20382;-62
2022/06/01 07:21:08;;;;;;;6.03;2.58;;;;;;;;;;5044678;28;20389;-62
2022/06/01 07:23:35;;;;;;;5.22;2.20;;;;;;;;;;5048616;28;20029;-62
2022/06/01 07:26:01;;;;;;;4.88;2.03;;;;;;;;;;5038198;28;20021;-62
2022/06/01 07:28:27;;;;;;;6.03;2.00;;;;;;;;;;5046241;28;20049;-62
2022/06/01 07:30:56;;;;;;;6.10;2.10;;;;;;;;;;5044149;28;20433;-62
2022/06/01 07:33:24;;;;;;;5.53;1.60;;;;;;;;;;5052881;28;20025;-63
2022/06/01 07:35:50;;;;;;;3.88;1.77;;;;;;;;;;5046821;28;20025;-62
2022/06/01 07:43:46;;;;;;;8.90;2.13;;;;;;;;;;5038875;28;20034;-63
2022/06/01 07:46:12;;;;;;;5.40;2.00;;;;;;;;;;5039984;28;20417;-62
2022/06/01 07:48:38;;;;;;;4.72;1.60;;;;;;;;;;5042043;28;20417;-63
2022/06/01 07:51:05;;;;;;;5.93;1.70;;;;;;;;;;5045128;28;20025;-62
2022/06/01 07:53:31;;;;;;;6.90;2.17;;;;;;;;;;5040812;28;20025;-62
2022/06/01 07:55:57;;;;;;;6.45;2.13;;;;;;;;;;5052217;28;20075;-62
2022/06/01 07:58:23;;;;;;;6.53;2.00;;;;;;;;;;5048378;28;20662;-63
2022/06/01 08:00:49;;;;;;;4.15;1.67;;;;;;;;;;5046064;28;20017;-63
2022/06/01 08:03:17;;;;;;;5.03;1.67;;;;;;;;;;5049221;28;20017;-62
2022/06/01 08:05:43;;;;;;;8.57;2.20;;;;;;;;;;5044462;28;20109;-63
2022/06/01 08:08:10;;;;;;;2.53;1.48;;;;;;;;;;5052418;28;20120;-62
2022/06/01 08:10:36;;;;;;;4.95;1.60;;;;;;;;;;5044086;28;20075;-63
2022/06/01 08:13:07;;;;;;;5.40;1.65;;;;;;;;;;5045546;28;20032;-63
2022/06/01 08:15:43;;;;;;;4.28;1.70;;;;;;;;;;5039055;28;20029;-62
2022/06/01 08:18:10;;;;;;;6.00;1.45;;;;;;;;;;5044507;28;20029;-62
2022/06/01 08:20:37;;;;;;;1.92;1.50;;;;;;;;;;5045019;28;20098;-62
2022/06/01 08:23:03;;;;;;;4.85;1.52;;;;;;;;;;5048738;28;20029;-63
2022/06/01 08:25:30;;;;;;;4.47;1.30;;;;;;;;;;5048441;28;20032;-62
2022/06/01 08:27:56;;;;;;;2.30;1.25;;;;;;;;;;5042162;28;20025;-62
2022/06/01 08:30:23;;;;;;;4.10;1.58;;;;;;;;;;5043560;28;20034;-63
2022/06/01 08:32:50;;;;;;;5.78;1.30;;;;;;;;;;5045610;28;20052;-62
2022/06/01 08:35:18;;;;;;;2.88;1.48;;;;;;;;;;5047744;28;20492;-62
2022/06/01 08:37:45;;;;;;;4.20;1.30;;;;;;;;;;5046012;28;20049;-62
2022/06/01 08:40:12;;;;;;;3.17;1.42;;;;;;;;;;5044722;28;20029;-62
2022/06/01 08:42:39;;;;;;;4.57;1.75;;;;;;;;;;5041843;28;20119;-63
2022/06/01 08:45:06;;;;;;;3.83;1.30;;;;;;;;;;5048141;28;20032;-63
2022/06/01 08:47:34;;;;;;;3.67;1.58;;;;;;;;;;5048020;28;20025;-62
2022/06/01 08:50:01;;;;;;;1.77;1.05;;;;;;;;;;5048218;28;20026;-63
2022/06/01 08:52:28;;;;;;;1.95;1.27;;;;;;;;;;5074629;28;20037;-63
2022/06/01 08:54:55;;;;;;;4.18;1.30;;;;;;;;;;5038677;28;20025;-62
2022/06/01 08:57:23;;;;;;;3.53;1.20;;;;;;;;;;5045757;28;20025;-63
2022/06/01 08:59:49;;;;;;;5.38;1.40;;;;;;;;;;5048189;28;20128;-63
2022/06/01 09:02:30;;;;;;;3.25;1.50;;;;;;;;;;5048313;28;20167;-63
2022/06/01 09:04:59;;;;;;;2.63;1.35;;;;;;;;;;5039681;28;20061;-62
2022/06/01 09:07:39;;;;;;;2.58;1.13;;;;;;;;;;5045694;28;20032;-63
2022/06/01 09:10:06;;;;;;;4.43;1.05;;;;;;;;;;5050687;28;20432;-63
2022/06/01 09:12:36;;;;;;;5.05;1.50;;;;;;;;;;5038337;28;20160;-63
2022/06/01 09:15:17;;;;;;;3.40;1.30;;;;;;;;;;5041553;28;20061;-63
2022/06/01 09:17:43;;;;;;;5.72;2.25;;;;;;;;;;5042674;28;20074;-63
2022/06/01 09:22:59;;;;;;;1.15;0.95;;;;;;;;;;5048363;28;20031;-63
2022/06/01 09:25:27;;;;;;;5.50;1.33;;;;;;;;;;5042181;28;20037;-62
2022/06/01 09:27:59;;;;;;;3.15;1.20;;;;;;;;;;5040515;28;20036;-62
2022/06/01 09:30:39;;;;;;;4.07;1.50;;;;;;;;;;5041749;28;20481;-63
2022/06/01 09:33:15;;;;;;;2.58;1.45;;;;;;;;;;5048106;28;20025;-63
2022/06/01 09:36:00;;;;;;;6.72;1.30;;;;;;;;;;5049806;28;20079;-63
2022/06/01 09:38:38;;;;;;;5.72;1.15;;;;;;;;;;5037761;28;20405;-63
2022/06/01 09:41:06;;;;;;;5.00;1.30;;;;;;;;;;5037851;28;20461;-63
2022/06/01 09:43:33;;;;;;;2.25;1.08;;;;;;;;;;5038121;28;20033;-63
2022/06/01 09:45:59;;;;;;;5.03;1.10;;;;;;;;;;5037298;28;20037;-63
2022/06/01 09:48:28;;;;;;;6.55;1.30;;;;;;;;;;5044914;28;20075;-63
2022/06/01 09:51:06;;;;;;;3.92;1.30;;;;;;;;;;5042143;28;20025;-63
2022/06/01 09:53:36;;;;;;;2.90;1.35;;;;;;;;;;5046871;28;20517;-62
2022/06/01 09:56:04;;;;;;;2.67;1.25;;;;;;;;;;5041467;28;20378;-63
2022/06/01 10:06:53;;;;;;;3.70;1.42;;;;;;;;;;5046897;28;20025;-63
2022/06/01 10:09:22;;;;;;;3.55;1.50;;;;;;;;;;5047917;28;20448;-63
2022/06/01 10:11:51;;;;;;;4.53;1.30;;;;;;;;;;5049170;28;20104;-63
2022/06/01 10:14:18;;;;;;;3.30;1.42;;;;;;;;;;5047817;28;20105;-63
2022/06/01 10:16:47;;;;;;;5.43;1.30;;;;;;;;;;5035843;28;20036;-63
2022/06/01 10:19:15;;;;;;;3.17;1.45;;;;;;;;;;5042506;28;20022;-63
2022/06/01 10:21:44;;;;;;;2.70;1.60;;;;;;;;;;5034080;28;20057;-63
2022/06/01 10:24:13;;;;;;;3.25;1.27;;;;;;;;;;5038281;28;20040;-63
2022/06/01 10:26:41;;;;;;;3.97;1.38;;;;;;;;;;5042412;28;20025;-63
2022/06/01 10:29:11;;;;;;;5.13;1.70;;;;;;;;;;5038452;28;20027;-62
2022/06/01 10:31:38;;;;;;;1.80;1.10;;;;;;;;;;5040125;28;20040;-62
2022/06/01 10:34:10;;;;;;;2.67;1.20;;;;;;;;;;5041703;28;20057;-63
2022/06/01 10:36:55;;;;;;;3.45;1.38;;;;;;;;;;5046519;28;20430;-62
2022/06/01 10:39:26;;;;;;;3.00;1.40;;;;;;;;;;5048251;28;20067;-62
2022/06/01 10:42:02;;;;;;;9.30;2.78;;;;;;;;;;5050287;28;20053;-63
2022/06/01 10:44:41;;;;;;;4.28;1.77;;;;;;;;;;5040196;28;20064;-63
2022/06/01 10:47:30;;;;;;;6.25;2.13;;;;;;;;;;5043294;28;20021;-63
2022/06/01 10:50:13;;;;;;;5.72;1.40;;;;;;;;;;5042880;28;20389;-63
2022/06/01 10:52:51;;;;;;;6.78;1.30;;;;;;;;;;5049154;28;20075;-63
2022/06/01 10:55:23;;;;;;;5.45;1.27;;;;;;;;;;5040163;28;20028;-63
2022/06/01 10:57:50;;;;;;;8.90;2.58;;;;;;;;;;5041208;28;20069;-63
2022/06/01 11:00:20;;;;;;;3.78;0.98;;;;;;;;;;5041383;28;20052;-62
2022/06/01 11:03:02;;;;;;;4.00;1.50;;;;;;;;;;5041505;28;20408;-62
2022/06/01 11:05:35;;;;;;;3.80;1.73;;;;;;;;;;5040067;28;20366;-63
2022/06/01 11:08:10;;;;;;;2.38;1.13;;;;;;;;;;5043407;28;20032;-63
2022/06/01 11:10:49;;;;;;;3.58;1.63;;;;;;;;;;5042532;28;20036;-63
2022/06/01 11:13:34;;;;;;;4.25;1.63;;;;;;;;;;5042119;28;20029;-62
2022/06/01 11:16:23;;;;;;;6.38;1.90;;;;;;;;;;5041629;28;20025;-63
2022/06/01 11:19:15;;;;;;;7.38;2.03;;;;;;;;;;5046273;28;20043;-63
2022/06/01 11:21:56;;;;;;;5.40;1.48;;;;;;;;;;5021353;28;20048;-63
2022/06/01 11:24:22;;;;;;;6.43;1.60;;;;;;;;;;5047311;28;20022;-63
2022/06/01 11:27:03;;;;;;;1.92;1.20;;;;;;;;;;5044922;28;20029;-63
2022/06/01 11:29:48;;;;;;;1.70;1.10;;;;;;;;;;5046600;28;20041;-63
2022/06/01 11:32:18;;;;;;;3.63;1.20;;;;;;;;;;5049040;28;20481;-63
2022/06/01 11:34:50;;;;;;;3.63;1.15;;;;;;;;;;5046471;28;20029;-63
2022/06/01 11:37:20;;;;;;;5.85;1.17;;;;;;;;;;5048334;28;20409;-63
2022/06/01 11:40:05;;;;;;;3.10;1.27;;;;;;;;;;5048113;28;20060;-63
2022/06/01 11:42:34;;;;;;;2.05;1.20;;;;;;;;;;5050737;28;20040;-63
2022/06/01 11:45:04;;;;;;;4.15;1.17;;;;;;;;;;5044066;28;20025;-63
2022/06/01 11:47:43;;;;;;;4.18;1.75;;;;;;;;;;5048292;28;20029;-63
2022/06/01 11:50:16;;;;;;;1.75;1.10;;;;;;;;;;5045607;28;20401;-63
2022/06/01 11:52:51;;;;;;;3.00;1.30;;;;;;;;;;5038554;28;20017;-62
2022/06/01 11:55:40;;;;;;;2.70;1.67;;;;;;;;;;5042750;28;20032;-63
2022/06/01 11:58:07;;;;;;;2.45;1.00;;;;;;;;;;5043459;28;20064;-63
2022/06/01 12:00:33;;;;;;;2.03;1.02;;;;;;;;;;5039372;28;20452;-63
2022/06/01 12:03:17;;;;;;;3.25;1.17;;;;;;;;;;5044146;28;20021;-63
2022/06/01 12:05:59;;;;;;;3.50;1.35;;;;;;;;;;5045588;28;20048;-63
2022/06/01 12:08:36;;;;;;;1.55;0.93;;;;;;;;;;5048756;28;20029;-63
2022/06/01 12:11:04;;;;;;;3.42;1.00;;;;;;;;;;5039830;28;20044;-63
2022/06/01 12:13:31;;;;;;;2.05;1.05;;;;;;;;;;5045013;28;20451;-63
2022/06/01 12:16:19;;;;;;;2.55;1.02;;;;;;;;;;5045172;28;20523;-63
2022/06/01 12:19:06;;;;;;;3.38;0.90;;;;;;;;;;5046743;28;20025;-63
2022/06/01 12:21:37;;;;;;;2.58;0.85;;;;;;;;;;5043926;28;20386;-63
2022/06/01 12:30:02;;;;;;;2.63;0.80;;;;;;;;;;5050210;28;20029;-63
2022/06/01 12:32:29;;;;;;;3.92;1.17;;;;;;;;;;5044610;28;20416;-62
2022/06/01 12:34:58;;;;;;;3.88;0.95;;;;;;;;;;5047112;28;20017;-62
2022/06/01 12:37:24;;;;;;;3.50;1.10;;;;;;;;;;5043070;28;20041;-62
2022/06/01 12:39:58;;;;;;;4.57;1.25;;;;;;;;;;5045031;28;20070;-63
2022/06/01 12:42:27;;;;;;;3.33;1.00;;;;;;;;;;5051303;28;20433;-63
2022/06/01 12:44:55;;;;;;;2.25;1.17;;;;;;;;;;5042477;28;20527;-62
2022/06/01 12:47:23;;;;;;;3.75;1.20;;;;;;;;;;5046779;28;20581;-62
2022/06/01 12:49:49;;;;;;;3.60;1.30;;;;;;;;;;5046917;28;20041;-62
2022/06/01 12:52:20;;;;;;;1.58;1.02;;;;;;;;;;5038695;28;20047;-62
2022/06/01 12:54:49;;;;;;;1.33;0.80;;;;;;;;;;5045086;28;20378;-62
2022/06/01 12:57:23;;;;;;;1.60;0.95;;;;;;;;;;5049383;28;20024;-63
2022/06/01 12:59:56;;;;;;;1.88;1.00;;;;;;;;;;5043374;28;20128;-63
2022/06/01 13:02:22;;;;;;;3.40;1.10;;;;;;;;;;5052519;28;20116;-62
2022/06/01 13:04:57;;;;;;;3.88;1.10;;;;;;;;;;5046870;28;20033;-63
2022/06/01 13:07:31;;;;;;;2.28;0.90;;;;;;;;;;5043040;28;20029;-62
2022/06/01 13:09:59;;;;;;;3.55;0.90;;;;;;;;;;5045377;28;20028;-63
2022/06/01 13:12:28;;;;;;;2.13;1.20;;;;;;;;;;5047987;28;20711;-62
2022/06/01 13:14:54;;;;;;;3.45;1.20;;;;;;;;;;5043879;28;20021;-63
2022/06/01 13:17:25;;;;;;;2.42;1.50;;;;;;;;;;5045073;28;20392;-62
2022/06/01 13:19:58;;;;;;;8.35;1.20;;;;;;;;;;5046803;28;20033;-62
2022/06/01 13:22:29;;;;;;;1.92;0.98;;;;;;;;;;5046603;28;20036;-63
2022/06/01 13:24:59;;;;;;;1.38;0.90;;;;;;;;;;5048244;28;20016;-62
2022/06/01 13:27:26;;;;;;;2.05;1.00;;;;;;;;;;5048473;28;20112;-63
2022/06/01 13:29:58;;;;;;;1.73;0.95;;;;;;;;;;5046617;28;20025;-62
2022/06/01 13:32:30;;;;;;;2.70;1.10;;;;;;;;;;5047641;28;20028;-63
2022/06/01 13:35:01;;;;;;;3.00;1.05;;;;;;;;;;5044336;28;20373;-62
2022/06/01 13:37:29;;;;;;;4.20;1.45;;;;;;;;;;5075403;28;20496;-63
2022/06/01 13:39:56;;;;;;;1.88;0.95;;;;;;;;;;5046823;28;20052;-62
2022/06/01 13:42:32;;;;;;;2.35;1.00;;;;;;;;;;5047873;28;20033;-62
2022/06/01 13:45:04;;;;;;;2.85;1.10;;;;;;;;;;5048848;28;20124;-63
2022/06/01 13:47:32;;;;;;;2.53;1.00;;;;;;;;;;5047595;28;20029;-62
2022/06/01 13:50:25;;;;;;;6.65;1.10;;;;;;;;;;5044648;28;20268;-62
2022/06/01 13:52:54;;;;;;;3.83;0.98;;;;;;;;;;5047023;28;20033;-62
2022/06/01 13:55:31;;;;;;;4.13;1.00;;;;;;;;;;5044615;28;20553;-62
2022/06/01 13:58:07;;;;;;;6.03;1.33;;;;;;;;;;5046903;28;20630;-63
2022/06/01 14:00:33;;;;;;;3.92;1.40;;;;;;;;;;5044702;28;20501;-63
2022/06/01 14:03:20;;;;;;;3.38;1.35;;;;;;;;;;5046074;28;20025;-63
2022/06/01 14:05:52;;;;;;;1.77;1.10;;;;;;;;;;5044768;28;20025;-63
2022/06/01 14:08:30;;;;;;;3.08;1.42;;;;;;;;;;5046711;28;20445;-63
2022/06/01 14:11:03;;;;;;;1.70;1.00;;;;;;;;;;5046044;28;20029;-62
2022/06/01 14:13:29;;;;;;;;;;;;;;;;;;5045855;28;20740;-62
2022/06/01 14:15:55;;;;;;;1.67;1.20;;;;;;;;;;5047661;28;19909;-63
2022/06/01 14:18:23;;;;;;;4.95;1.15;;;;;;;;;;5046606;28;20409;-62
2022/06/01 14:20:50;;;;;;;6.20;1.55;;;;;;;;;;5042999;28;20079;-62
2022/06/01 14:23:16;;;;;;;2.42;1.25;;;;;;;;;;5073762;28;20084;-63
2022/06/01 14:28:30;;;;;;;2.13;1.13;;;;;;;;;;5044665;28;20045;-62
2022/06/01 14:31:01;;;;;;;2.28;1.10;;;;;;;;;;5046051;28;20051;-62
2022/06/01 14:33:27;;;;;;;4.63;1.20;;;;;;;;;;5044996;28;20151;-62
2022/06/01 14:35:54;;;;;;;2.25;1.10;;;;;;;;;;5042023;28;20057;-63
2022/06/01 14:38:20;;;;;;;1.33;0.90;;;;;;;;;;5040503;28;20536;-62
2022/06/01 14:40:48;;;;;;;6.25;1.60;;;;;;;;;;5041646;28;20040;-63
2022/06/01 14:43:16;;;;;;;3.35;1.20;;;;;;;;;;5040830;28;20024;-63
2022/06/01 14:45:42;;;;;;;3.33;1.30;;;;;;;;;;5038921;28;20405;-62
2022/06/01 14:48:08;;;;;;;2.40;1.30;;;;;;;;;;5040500;28;20021;-62
2022/06/01 14:50:34;;;;;;;3.00;1.15;;;;;;;;;;5043403;28;20025;-62
2022/06/01 14:53:04;;;;;;;1.85;1.17;;;;;;;;;;5045449;28;20033;-62
2022/06/01 14:55:30;;;;;;;3.17;1.02;;;;;;;;;;5044076;28;20038;-63
2022/06/01 14:57:58;;;;;;;2.85;1.25;;;;;;;;;;5040248;28;20048;-63
2022/06/01 15:00:24;;;;;;;4.88;1.33;;;;;;;;;;5044300;28;20158;-63
2022/06/01 15:02:51;;;;;;;6.25;1.70;;;;;;;;;;5047099;28;20032;-63
2022/06/01 15:05:18;;;;;;;4.00;1.55;;;;;;;;;;5043759;28;20068;-63
2022/06/01 15:07:44;;;;;;;3.30;1.60;;;;;;;;;;5047075;28;20078;-63
2022/06/01 15:10:10;;;;;;;3.03;1.60;;;;;;;;;;5043564;28;20041;-63
2022/06/01 15:12:36;;;;;;;7.88;2.65;;;;;;;;;;5043523;28;20119;-63
2022/06/01 15:15:02;;;;;;;3.35;1.58;;;;;;;;;;5045949;28;20033;-63
2022/06/01 15:17:28;;;;;;;3.10;1.70;;;;;;;;;;5046159;28;20065;-63
2022/06/01 15:19:55;;;;;;;6.80;1.50;;;;;;;;;;5047479;28;20086;-63
2022/06/01 15:22:22;;;;;;;4.75;1.60;;;;;;;;;;5046070;28;20524;-63
2022/06/01 15:24:48;;;;;;;5.15;1.30;;;;;;;;;;5044825;28;20028;-63
2022/06/01 15:27:15;;;;;;;2.47;1.23;;;;;;;;;;5048125;28;20059;-63
2022/06/01 15:40:41;;;;;;;3.20;1.58;;;;;;;;;;5039473;28;20037;-63